createdAt,value
2022-11-12T00:03:15.900Z,98.92
2022-11-12T00:06:37.365Z,98.28
2022-11-12T00:09:58.193Z,97.57
2022-11-12T00:13:18.887Z,99.71
2022-11-12T00:16:39.287Z,99.01
2022-11-12T00:19:59.983Z,97.74
2022-11-12T00:23:22.287Z,97.96
2022-11-12T00:26:45.197Z,100.00
2022-11-12T00:30:11.830Z,100.00
2022-11-12T00:33:38.836Z,100.00
2022-11-12T00:37:00.627Z,100.00
2022-11-12T00:40:22.045Z,100.00
2022-11-12T00:43:42.900Z,100.00
2022-11-12T00:47:04.616Z,100.00
2022-11-12T00:50:26.355Z,100.00
2022-11-12T00:53:55.856Z,100.00
2022-11-12T00:57:16.604Z,100.00
2022-11-12T01:00:38.207Z,100.00
2022-11-12T01:04:00.262Z,100.00
2022-11-12T01:07:21.114Z,100.00
2022-11-12T01:10:41.912Z,100.00
2022-11-12T01:14:06.397Z,100.00
2022-11-12T01:17:28.753Z,100.00
2022-11-12T01:20:50.093Z,100.00
2022-11-12T01:24:10.642Z,100.00
2022-11-12T01:27:38.591Z,100.00
2022-11-12T01:31:21.012Z,100.00
2022-11-12T01:34:42.639Z,100.00
2022-11-12T01:38:03.789Z,100.00
2022-11-12T01:41:31.262Z,100.00
2022-11-12T01:44:53.206Z,100.00
2022-11-12T01:48:27.144Z,100.00
2022-11-12T01:51:52.128Z,100.00
2022-11-12T01:55:20.428Z,100.00
2022-11-12T01:58:42.939Z,100.00
2022-11-12T02:02:05.136Z,100.00
2022-11-12T02:05:30.243Z,100.00
2022-11-12T02:08:52.210Z,100.00
2022-11-12T02:12:32.921Z,100.00
2022-11-12T02:15:53.644Z,100.00
2022-11-12T02:19:17.077Z,100.00
2022-11-12T02:22:40.850Z,100.00
2022-11-12T02:26:02.185Z,100.00
2022-11-12T02:29:23.244Z,100.00
2022-11-12T02:32:44.070Z,100.00
2022-11-12T02:36:05.641Z,100.00
2022-11-12T02:39:29.618Z,100.00
2022-11-12T02:42:50.473Z,100.00
2022-11-12T02:46:13.656Z,100.00
2022-11-12T02:49:35.332Z,100.00
2022-11-12T02:52:57.521Z,100.00
2022-11-12T02:56:17.698Z,100.00
2022-11-12T02:59:41.432Z,100.00
2022-11-12T03:03:02.776Z,100.00
2022-11-12T03:06:23.590Z,100.00
2022-11-12T03:09:45.265Z,100.00
2022-11-12T03:13:06.752Z,100.00
2022-11-12T03:16:27.524Z,100.00
2022-11-12T03:19:48.466Z,100.00
2022-11-12T03:23:11.992Z,100.00
2022-11-12T03:26:36.074Z,100.00
2022-11-12T03:29:57.109Z,100.00
2022-11-12T03:33:19.442Z,100.00
2022-11-12T03:36:40.480Z,100.00
2022-11-12T03:40:00.942Z,100.00
2022-11-12T03:43:21.716Z,100.00
2022-11-12T03:46:44.324Z,100.00
2022-11-12T03:50:06.795Z,100.00
2022-11-12T03:53:27.516Z,100.00
2022-11-12T03:56:48.397Z,100.00
2022-11-12T04:00:11.213Z,100.00
2022-11-12T04:03:32.345Z,100.00
2022-11-12T04:07:12.552Z,100.00
2022-11-12T04:10:33.503Z,100.00
2022-11-12T04:13:54.638Z,100.00
2022-11-12T04:17:36.207Z,100.00
2022-11-12T04:21:16.860Z,100.00
2022-11-12T04:24:58.836Z,100.00
2022-11-12T04:28:20.955Z,100.00
2022-11-12T04:31:41.972Z,100.00
2022-11-12T04:35:04.773Z,100.00
2022-11-12T04:38:25.921Z,100.00
2022-11-12T04:42:05.729Z,100.00
2022-11-12T04:45:26.308Z,100.00
2022-11-12T04:48:46.834Z,100.00
2022-11-12T04:52:07.653Z,100.00
2022-11-12T04:55:28.870Z,99.46
2022-11-12T04:58:51.661Z,98.03
2022-11-12T05:02:12.489Z,98.28
2022-11-12T05:05:34.240Z,100.00
2022-11-12T05:08:55.845Z,100.00
2022-11-12T05:12:16.460Z,100.00
2022-11-12T05:15:37.018Z,100.00
2022-11-12T05:18:57.490Z,100.00
2022-11-12T05:22:42.157Z,100.00
2022-11-12T05:26:01.137Z,100.00
2022-11-12T05:29:24.444Z,100.00
2022-11-12T05:32:45.118Z,100.00
2022-11-12T05:36:06.545Z,100.00
2022-11-12T05:39:27.490Z,100.00
2022-11-12T05:42:49.581Z,100.00
2022-11-12T05:46:10.280Z,100.00
2022-11-12T05:49:30.911Z,100.00
2022-11-12T05:52:52.534Z,100.00
2022-11-12T05:56:15.359Z,100.00
2022-11-12T05:59:35.995Z,100.00
2022-11-12T06:02:59.886Z,100.00
2022-11-12T06:06:20.511Z,100.00
2022-11-12T06:09:41.494Z,100.00
2022-11-12T06:13:01.977Z,100.00
2022-11-12T06:16:22.459Z,100.00
2022-11-12T06:19:44.696Z,100.00
2022-11-12T06:23:06.662Z,100.00
2022-11-12T06:26:29.095Z,100.00
2022-11-12T06:29:49.858Z,100.00
2022-11-12T06:33:10.929Z,100.00
2022-11-12T06:36:34.850Z,100.00
2022-11-12T06:40:00.557Z,100.00
2022-11-12T06:43:21.866Z,100.00
2022-11-12T06:46:42.377Z,100.00
2022-11-12T06:50:03.275Z,100.00
2022-11-12T06:53:24.395Z,100.00
2022-11-12T06:56:44.800Z,100.00
2022-11-12T07:00:06.241Z,100.00
2022-11-12T07:03:26.618Z,100.00
2022-11-12T07:06:47.428Z,100.00
2022-11-12T07:10:09.241Z,100.00
2022-11-12T07:13:32.866Z,100.00
2022-11-12T07:16:53.453Z,100.00
2022-11-12T07:20:15.613Z,100.00
2022-11-12T07:23:37.213Z,100.00
2022-11-12T07:26:58.581Z,98.54
2022-11-12T07:30:19.803Z,98.87
2022-11-12T07:33:41.676Z,98.42
2022-11-12T07:37:03.187Z,98.24
2022-11-12T07:40:23.574Z,97.33
2022-11-12T07:43:46.007Z,97.08
2022-11-12T07:47:06.642Z,97.58
2022-11-12T07:50:27.478Z,97.43
2022-11-12T07:53:49.446Z,97.30
2022-11-12T07:57:10.172Z,97.62
2022-11-12T08:00:30.653Z,96.95
2022-11-12T08:03:51.516Z,97.29
2022-11-12T08:07:13.065Z,96.89
2022-11-12T08:10:35.132Z,97.24
2022-11-12T08:13:55.795Z,96.62
2022-11-12T08:17:16.613Z,97.39
2022-11-12T08:20:37.383Z,97.20
2022-11-12T08:23:58.282Z,96.98
2022-11-12T08:27:19.053Z,96.98
2022-11-12T08:30:39.792Z,97.01
2022-11-12T08:34:12.448Z,97.42
2022-11-12T08:37:36.734Z,97.12
2022-11-12T08:41:04.028Z,97.23
2022-11-12T08:44:24.432Z,97.51
2022-11-12T08:47:44.996Z,97.19
2022-11-12T08:51:16.438Z,96.93
2022-11-12T08:54:37.385Z,97.29
2022-11-12T08:58:06.776Z,96.95
2022-11-12T09:01:27.489Z,96.79
2022-11-12T09:04:48.324Z,96.54
2022-11-12T09:08:14.637Z,96.36
2022-11-12T09:11:35.329Z,96.10
2022-11-12T09:15:09.649Z,96.49
2022-11-12T09:18:37.968Z,96.20
2022-11-12T09:22:02.028Z,96.14
2022-11-12T09:25:22.450Z,95.57
2022-11-12T09:28:43.336Z,95.65
2022-11-12T09:32:04.207Z,96.04
2022-11-12T09:35:24.989Z,95.48
2022-11-12T09:38:45.524Z,95.37
2022-11-12T09:42:08.423Z,94.92
2022-11-12T09:45:32.714Z,95.20
2022-11-12T09:49:08.268Z,94.92
2022-11-12T09:52:30.547Z,94.85
2022-11-12T09:55:51.232Z,94.50
2022-11-12T09:59:13.377Z,94.18
2022-11-12T10:02:47.572Z,94.21
2022-11-12T10:06:21.768Z,94.44
2022-11-12T10:09:48.247Z,94.30
2022-11-12T10:13:15.133Z,94.15
2022-11-12T10:16:55.906Z,93.52
2022-11-12T10:20:30.234Z,94.05
2022-11-12T10:23:56.323Z,94.44
2022-11-12T10:27:24.674Z,92.04
2022-11-12T10:30:46.275Z,100.00
2022-11-12T10:34:15.526Z,100.00
2022-11-12T10:37:56.887Z,96.08
2022-11-12T10:41:22.486Z,95.41
2022-11-12T10:44:43.669Z,95.52
2022-11-12T10:48:04.513Z,94.85
2022-11-12T10:51:31.997Z,93.46
2022-11-12T10:55:04.113Z,95.11
2022-11-12T10:58:25.455Z,95.86
2022-11-12T11:01:54.018Z,95.38
2022-11-12T11:05:33.777Z,96.03
2022-11-12T11:09:14.444Z,93.60
2022-11-12T11:12:35.742Z,93.56
2022-11-12T11:16:02.404Z,93.44
2022-11-12T11:19:23.490Z,93.21
2022-11-12T11:22:46.939Z,93.90
2022-11-12T11:26:31.315Z,93.82
2022-11-12T11:30:00.571Z,92.00
2022-11-12T11:33:24.194Z,92.58
2022-11-12T11:37:10.134Z,92.92
2022-11-12T11:40:37.306Z,91.68
2022-11-12T11:44:17.269Z,91.85
2022-11-12T11:48:02.269Z,92.18
2022-11-12T11:52:05.793Z,92.14
2022-11-12T11:55:54.416Z,92.34
2022-11-12T11:59:33.695Z,92.50
2022-11-12T12:03:24.042Z,92.71
2022-11-12T12:06:59.743Z,93.45
2022-11-12T12:15:02.030Z,93.61
2022-11-12T12:18:46.896Z,92.23
2022-11-12T12:22:17.770Z,93.37
2022-11-12T12:25:41.510Z,93.00
2022-11-12T12:29:31.624Z,92.90
2022-11-12T12:33:08.553Z,93.11
2022-11-12T12:36:36.778Z,92.77
2022-11-12T12:40:15.298Z,92.12
2022-11-12T12:44:01.501Z,93.65
2022-11-12T12:47:26.529Z,93.26
2022-11-12T12:50:49.041Z,92.72
2022-11-12T12:54:34.627Z,92.48
2022-11-12T12:58:00.986Z,91.97
2022-11-12T13:01:21.611Z,92.58
2022-11-12T13:04:56.938Z,91.65
2022-11-12T13:08:25.532Z,92.44
2022-11-12T13:12:06.346Z,91.33
2022-11-12T13:15:45.756Z,92.02
2022-11-12T13:19:07.823Z,92.15
2022-11-12T13:22:28.219Z,91.66
2022-11-12T13:25:48.874Z,91.29
2022-11-12T13:29:22.016Z,92.36
2022-11-12T13:32:48.719Z,92.18
2022-11-12T13:36:26.115Z,93.57
2022-11-12T13:39:46.738Z,93.14
2022-11-12T13:43:19.087Z,92.65
2022-11-12T13:46:39.914Z,92.45
2022-11-12T13:50:02.038Z,93.00
2022-11-12T13:53:26.570Z,93.27
2022-11-12T13:56:47.004Z,94.50
2022-11-12T14:00:26.957Z,96.34
2022-11-12T14:03:51.179Z,97.04
2022-11-12T14:07:46.007Z,95.02
2022-11-12T14:11:16.428Z,96.34
2022-11-12T14:15:00.901Z,94.75
2022-11-12T14:18:41.730Z,94.18
2022-11-12T14:22:14.143Z,92.24
2022-11-12T14:25:34.646Z,93.57
2022-11-12T14:28:59.474Z,94.71
2022-11-12T14:32:20.051Z,96.32
2022-11-12T14:35:40.868Z,95.16
2022-11-12T14:39:01.515Z,94.87
2022-11-12T14:42:22.100Z,95.50
2022-11-12T14:45:48.862Z,96.53
2022-11-12T14:49:34.147Z,96.67
2022-11-12T14:53:09.622Z,96.72
2022-11-12T14:56:39.125Z,96.48
2022-11-12T14:59:59.658Z,98.02
2022-11-12T15:03:26.583Z,100.00
2022-11-12T15:06:56.428Z,100.00
2022-11-12T15:10:35.846Z,100.00
2022-11-12T15:14:01.124Z,100.00
2022-11-12T15:17:34.689Z,100.00
2022-11-12T15:21:10.919Z,100.00
2022-11-12T15:24:34.619Z,100.00
2022-11-12T15:27:55.364Z,100.00
2022-11-12T15:31:20.200Z,100.00
2022-11-12T15:34:41.909Z,98.25
2022-11-12T15:38:06.967Z,97.62
2022-11-12T15:41:34.004Z,97.61
2022-11-12T15:45:03.489Z,96.26
2022-11-12T15:48:23.888Z,96.45
2022-11-12T15:51:44.263Z,96.58
2022-11-12T15:55:05.156Z,96.63
2022-11-12T15:58:33.403Z,95.88
2022-11-12T16:01:54.244Z,94.82
2022-11-12T16:05:17.231Z,95.21
2022-11-12T16:08:37.794Z,95.20
2022-11-12T16:11:59.095Z,95.63
2022-11-12T16:15:25.657Z,95.73
2022-11-12T16:18:46.496Z,95.14
2022-11-12T16:22:12.696Z,95.65
2022-11-12T16:25:36.403Z,96.83
2022-11-12T16:28:57.803Z,95.82
2022-11-12T16:32:18.019Z,96.73
2022-11-12T16:35:39.124Z,97.55
2022-11-12T16:38:59.572Z,98.02
2022-11-12T16:42:19.899Z,97.96
2022-11-12T16:45:42.820Z,98.14
2022-11-12T16:49:03.523Z,97.58
2022-11-12T16:52:24.023Z,99.05
2022-11-12T16:55:44.716Z,99.57
2022-11-12T16:59:05.779Z,99.52
2022-11-12T17:02:26.508Z,100.00
2022-11-12T17:05:52.750Z,100.00
2022-11-12T17:09:16.742Z,100.00
2022-11-12T17:12:37.594Z,100.00
2022-11-12T17:15:58.819Z,100.00
2022-11-12T17:19:19.365Z,100.00
2022-11-12T17:22:40.137Z,100.00
2022-11-12T17:26:02.212Z,100.00
2022-11-12T17:29:22.568Z,100.00
2022-11-12T17:32:42.890Z,100.00
2022-11-12T17:36:05.043Z,100.00
2022-11-12T17:39:25.845Z,100.00
2022-11-12T17:42:46.389Z,100.00
2022-11-12T17:46:08.852Z,100.00
2022-11-12T17:49:29.369Z,100.00
2022-11-12T17:52:50.002Z,100.00
2022-11-12T17:56:13.017Z,100.00
2022-11-12T17:59:33.816Z,100.00
2022-11-12T18:02:57.761Z,100.00
2022-11-12T18:06:25.917Z,100.00
2022-11-12T18:09:46.360Z,100.00
2022-11-12T18:13:06.719Z,100.00
2022-11-12T18:16:29.266Z,100.00
2022-11-12T18:19:49.928Z,100.00
2022-11-12T18:23:10.546Z,100.00
2022-11-12T18:26:31.110Z,100.00
2022-11-12T18:29:51.452Z,100.00
2022-11-12T18:33:12.294Z,100.00
2022-11-12T18:36:33.125Z,100.00
2022-11-12T18:39:53.502Z,100.00
2022-11-12T18:43:15.473Z,100.00
2022-11-12T18:46:36.115Z,100.00
2022-11-12T18:49:56.752Z,100.00
2022-11-12T18:53:17.247Z,100.00
2022-11-12T18:56:38.337Z,100.00
2022-11-12T18:59:59.221Z,100.00
2022-11-12T19:03:20.083Z,100.00
2022-11-12T19:06:40.800Z,100.00
2022-11-12T19:10:14.703Z,100.00
2022-11-12T19:13:36.326Z,100.00
2022-11-12T19:16:57.441Z,100.00
2022-11-12T19:20:17.594Z,100.00
2022-11-12T19:23:38.854Z,100.00
2022-11-12T19:26:59.308Z,100.00
2022-11-12T19:30:19.838Z,100.00
2022-11-12T19:33:40.249Z,100.00
2022-11-12T19:40:42.524Z,100.00
2022-11-12T19:44:02.836Z,100.00
2022-11-12T19:47:23.365Z,100.00
2022-11-12T19:50:43.790Z,100.00
2022-11-12T19:54:04.833Z,100.00
2022-11-12T19:57:27.156Z,100.00
2022-11-12T20:00:47.777Z,100.00
2022-11-12T20:04:08.229Z,100.00
2022-11-12T20:07:28.919Z,100.00
2022-11-12T20:10:49.573Z,100.00
2022-11-12T20:14:10.553Z,100.00
2022-11-12T20:17:33.232Z,100.00
2022-11-12T20:20:56.275Z,100.00
2022-11-12T20:24:16.792Z,100.00
2022-11-12T20:27:37.430Z,100.00
2022-11-12T20:31:09.894Z,100.00
2022-11-12T20:34:30.508Z,100.00
2022-11-12T20:37:53.298Z,100.00
2022-11-12T20:41:16.870Z,100.00
2022-11-12T20:44:37.173Z,100.00
2022-11-12T20:47:57.864Z,100.00
2022-11-12T20:51:25.346Z,100.00
2022-11-12T20:54:46.308Z,100.00
2022-11-12T20:58:07.064Z,100.00
2022-11-12T21:01:29.378Z,100.00
2022-11-12T21:04:49.745Z,100.00
2022-11-12T21:08:09.982Z,100.00
2022-11-12T21:11:30.580Z,100.00
2022-11-12T21:14:51.493Z,100.00
2022-11-12T21:18:12.168Z,100.00
2022-11-12T21:21:32.506Z,100.00
2022-11-12T21:24:53.019Z,100.00
2022-11-12T21:28:13.760Z,100.00
2022-11-12T21:31:34.140Z,100.00
2022-11-12T21:34:55.835Z,100.00
2022-11-12T21:38:16.288Z,100.00
2022-11-12T21:41:36.745Z,100.00
2022-11-12T21:44:57.237Z,100.00
2022-11-12T21:48:17.585Z,100.00
2022-11-12T21:51:38.086Z,100.00
2022-11-12T21:54:58.605Z,100.00
2022-11-12T21:58:19.250Z,100.00
2022-11-12T22:01:40.785Z,100.00
2022-11-12T22:05:01.062Z,100.00
2022-11-12T22:08:21.479Z,100.00
2022-11-12T22:11:42.102Z,100.00
2022-11-12T22:15:02.622Z,100.00
2022-11-12T22:18:23.406Z,100.00
2022-11-12T22:21:43.871Z,100.00
2022-11-12T22:25:07.199Z,100.00
2022-11-12T22:28:27.976Z,100.00
2022-11-12T22:31:48.442Z,100.00
2022-11-12T22:35:09.589Z,100.00
2022-11-12T22:38:37.995Z,100.00
2022-11-12T22:41:58.541Z,100.00
2022-11-12T22:45:18.917Z,100.00
2022-11-12T22:48:40.066Z,100.00
2022-11-12T22:52:00.667Z,100.00
2022-11-12T22:55:21.589Z,100.00
2022-11-12T22:58:44.631Z,100.00
2022-11-12T23:02:07.970Z,100.00
2022-11-12T23:05:28.405Z,100.00
2022-11-12T23:08:49.263Z,100.00
2022-11-12T23:12:09.968Z,100.00
2022-11-12T23:15:31.092Z,100.00
2022-11-12T23:18:52.963Z,100.00
2022-11-12T23:22:13.497Z,100.00
2022-11-12T23:25:34.668Z,100.00
2022-11-12T23:28:55.356Z,100.00
2022-11-12T23:32:15.802Z,100.00
2022-11-12T23:35:36.336Z,100.00
2022-11-12T23:38:58.032Z,100.00
2022-11-12T23:42:18.447Z,100.00
2022-11-12T23:45:38.820Z,100.00
2022-11-12T23:48:59.610Z,100.00
2022-11-12T23:52:19.909Z,100.00
2022-11-12T23:55:44.055Z,100.00
2022-11-12T23:59:04.333Z,100.00
